createdAt,value
2017-11-28T00:00:02.477Z,5.59
2017-11-28T00:01:02.423Z,5.59
2017-11-28T00:02:02.395Z,5.66
2017-11-28T00:03:02.397Z,5.71
2017-11-28T00:04:02.346Z,5.68
2017-11-28T00:05:02.330Z,5.64
2017-11-28T00:06:02.329Z,5.62
2017-11-28T00:07:02.304Z,5.64
2017-11-28T00:08:02.266Z,5.68
2017-11-28T00:09:02.289Z,5.65
2017-11-28T00:10:02.218Z,5.68
2017-11-28T00:11:02.198Z,5.61
2017-11-28T00:12:02.179Z,5.66
2017-11-28T00:13:02.143Z,5.66
2017-11-28T00:14:02.139Z,5.65
2017-11-28T00:15:02.097Z,5.68
2017-11-28T00:16:02.099Z,5.62
2017-11-28T00:17:02.096Z,5.65
2017-11-28T00:18:02.072Z,5.61
2017-11-28T00:19:02.016Z,5.65
2017-11-28T00:20:02.012Z,5.62
2017-11-28T00:21:01.984Z,5.66
2017-11-28T00:22:01.934Z,5.59
2017-11-28T00:23:01.925Z,5.64
2017-11-28T00:24:01.929Z,5.56
2017-11-28T00:25:01.915Z,5.61
2017-11-28T00:26:01.874Z,5.57
2017-11-28T00:27:01.839Z,5.62
2017-11-28T00:28:01.810Z,5.51
2017-11-28T00:29:01.777Z,5.51
2017-11-28T00:30:01.796Z,5.51
2017-11-28T00:31:01.736Z,5.50
2017-11-28T00:32:01.729Z,5.47
2017-11-28T00:33:01.684Z,5.48
2017-11-28T00:34:01.666Z,5.43
2017-11-28T00:35:01.654Z,5.46
2017-11-28T00:36:01.622Z,5.39
2017-11-28T00:37:01.606Z,5.39
2017-11-28T00:38:01.595Z,5.32
2017-11-28T00:39:01.563Z,5.36
2017-11-28T00:40:01.612Z,5.38
2017-11-28T00:41:01.521Z,5.28
2017-11-28T00:42:01.525Z,5.29
2017-11-28T00:43:01.472Z,5.25
2017-11-28T00:44:01.466Z,5.26
2017-11-28T00:45:01.411Z,5.26
2017-11-28T00:46:01.395Z,5.29
2017-11-28T00:47:01.363Z,5.25
2017-11-28T00:48:01.343Z,5.25
2017-11-28T00:49:01.342Z,5.21
2017-11-28T00:50:01.296Z,5.21
2017-11-28T00:51:01.286Z,5.23
2017-11-28T00:52:01.254Z,5.26
2017-11-28T00:53:01.235Z,5.29
2017-11-28T00:54:01.205Z,5.33
2017-11-28T00:55:01.215Z,5.23
2017-11-28T00:56:01.180Z,5.23
2017-11-28T00:57:01.144Z,5.26
2017-11-28T00:58:01.126Z,5.32
2017-11-28T00:59:01.143Z,5.29
2017-11-28T01:00:01.081Z,5.29
2017-11-28T01:01:01.066Z,5.32
2017-11-28T01:02:01.063Z,5.35
2017-11-28T01:03:01.019Z,5.36
2017-11-28T01:04:00.997Z,5.30
2017-11-28T01:05:00.989Z,5.36
2017-11-28T01:06:00.967Z,5.28
2017-11-28T01:07:00.919Z,5.33
2017-11-28T01:08:00.914Z,5.20
2017-11-28T01:09:00.870Z,5.30
2017-11-28T01:10:00.877Z,5.29
2017-11-28T01:11:00.838Z,5.26
2017-11-28T01:12:00.833Z,5.29
2017-11-28T01:13:00.821Z,5.30
2017-11-28T01:14:01.453Z,5.28
2017-11-28T01:15:00.799Z,5.39
2017-11-28T01:16:00.709Z,5.35
2017-11-28T01:17:00.693Z,5.30
2017-11-28T01:18:00.662Z,5.33
2017-11-28T01:19:00.642Z,5.33
2017-11-28T01:20:00.639Z,5.36
2017-11-28T01:21:00.633Z,5.30
2017-11-28T01:22:00.569Z,5.36
2017-11-28T01:23:00.552Z,5.32
2017-11-28T01:24:00.529Z,5.38
2017-11-28T01:25:00.517Z,5.41
2017-11-28T01:26:00.508Z,5.39
2017-11-28T01:27:00.474Z,5.32
2017-11-28T01:28:00.443Z,5.35
2017-11-28T01:29:00.419Z,5.33
2017-11-28T01:30:00.427Z,5.43
2017-11-28T01:31:00.379Z,5.46
2017-11-28T01:32:00.343Z,5.43
2017-11-28T01:33:00.425Z,5.41
2017-11-28T01:34:00.312Z,5.41
2017-11-28T01:35:00.273Z,5.39
2017-11-28T01:36:00.263Z,5.36
2017-11-28T01:37:00.228Z,5.39
2017-11-28T01:38:00.238Z,5.44
2017-11-28T01:39:00.180Z,5.38
2017-11-28T01:40:00.192Z,5.33
2017-11-28T01:41:00.168Z,5.39
2017-11-28T01:42:00.131Z,5.38
2017-11-28T01:43:00.108Z,5.50
2017-11-28T01:44:00.090Z,5.46
2017-11-28T01:45:00.081Z,5.44
2017-11-28T01:46:00.032Z,5.46
2017-11-28T01:47:00.034Z,5.44
2017-11-28T01:47:59.997Z,5.36
2017-11-28T01:48:59.956Z,5.47
2017-11-28T01:49:59.949Z,5.47
2017-11-28T01:50:59.956Z,5.51
2017-11-28T01:51:59.907Z,5.50
2017-11-28T01:52:59.870Z,5.54
2017-11-28T01:53:59.842Z,5.50
2017-11-28T01:54:59.843Z,5.50
2017-11-28T01:55:59.797Z,5.53
2017-11-28T01:56:59.770Z,5.43
2017-11-28T01:57:59.753Z,5.53
2017-11-28T01:58:59.748Z,5.50
2017-11-28T01:59:59.782Z,5.47
2017-11-28T02:00:59.683Z,5.51
2017-11-28T02:01:59.692Z,5.51
2017-11-28T02:02:59.634Z,5.51
2017-11-28T02:03:59.655Z,5.43
2017-11-28T02:04:59.608Z,5.50
2017-11-28T02:05:59.565Z,5.47
2017-11-28T02:06:59.578Z,5.47
2017-11-28T02:07:59.530Z,5.44
2017-11-28T02:08:59.495Z,5.48
2017-11-28T02:09:59.479Z,5.43
2017-11-28T02:10:59.468Z,5.47
2017-11-28T02:11:59.457Z,5.51
2017-11-28T02:12:59.408Z,5.47
2017-11-28T02:13:59.414Z,5.48
2017-11-28T02:14:59.392Z,5.38
2017-11-28T02:15:59.359Z,5.38
2017-11-28T02:16:59.337Z,5.47
2017-11-28T02:17:59.295Z,5.46
2017-11-28T02:18:59.293Z,5.46
2017-11-28T02:19:59.280Z,5.44
2017-11-28T02:20:59.270Z,5.48
2017-11-28T02:21:59.247Z,5.53
2017-11-28T02:22:59.203Z,5.47
2017-11-28T02:23:59.152Z,5.48
2017-11-28T02:24:59.264Z,5.48
2017-11-28T02:25:59.112Z,5.48
2017-11-28T02:26:59.087Z,5.47
2017-11-28T02:27:59.089Z,5.41
2017-11-28T02:28:59.069Z,5.48
2017-11-28T02:29:59.041Z,5.48
2017-11-28T02:30:58.999Z,5.47
2017-11-28T02:31:59.020Z,5.39
2017-11-28T02:32:58.968Z,5.44
2017-11-28T02:33:58.952Z,5.35
2017-11-28T02:34:58.933Z,5.33
2017-11-28T02:35:58.903Z,5.36
2017-11-28T02:36:58.891Z,5.36
2017-11-28T02:37:58.845Z,5.35
2017-11-28T02:38:58.909Z,5.33
2017-11-28T02:42:41.765Z,5.38
2017-11-28T02:43:41.599Z,5.29
2017-11-28T02:44:41.844Z,5.30
2017-11-28T02:45:41.446Z,5.29
2017-11-28T02:46:41.382Z,5.26
2017-11-28T02:47:41.376Z,5.26
2017-11-28T02:48:41.313Z,5.28
2017-11-28T02:49:41.299Z,5.23
2017-11-28T02:50:41.291Z,5.26
2017-11-28T02:51:41.254Z,5.29
2017-11-28T02:52:41.228Z,5.30
2017-11-28T02:53:41.203Z,5.25
2017-11-28T02:54:41.187Z,5.21
2017-11-28T02:55:41.207Z,5.25
2017-11-28T02:56:41.139Z,5.32
2017-11-28T02:57:41.142Z,5.28
2017-11-28T02:58:41.131Z,5.18
2017-11-28T02:59:41.094Z,5.23
2017-11-28T03:00:41.041Z,5.21
2017-11-28T03:01:41.015Z,5.29
2017-11-28T03:02:40.999Z,5.28
2017-11-28T03:03:40.985Z,5.21
2017-11-28T03:04:40.950Z,5.26
2017-11-28T03:05:40.961Z,5.25
2017-11-28T03:06:40.902Z,5.26
2017-11-28T03:07:40.885Z,5.29
2017-11-28T03:08:40.897Z,5.29
2017-11-28T03:09:40.845Z,5.23
2017-11-28T03:10:40.813Z,5.26
2017-11-28T03:11:40.819Z,5.28
2017-11-28T03:12:40.803Z,5.25
2017-11-28T03:13:40.752Z,5.30
2017-11-28T03:14:40.747Z,5.25
2017-11-28T03:15:40.742Z,5.18
2017-11-28T03:16:40.677Z,5.17
2017-11-28T03:17:40.654Z,5.17
2017-11-28T03:18:40.667Z,5.23
2017-11-28T03:19:40.624Z,5.23
2017-11-28T03:20:41.525Z,5.21
2017-11-28T03:21:40.573Z,5.25
2017-11-28T03:22:40.658Z,5.15
2017-11-28T03:23:40.558Z,5.18
2017-11-28T03:24:40.492Z,5.21
2017-11-28T03:25:40.489Z,5.18
2017-11-28T03:26:40.447Z,5.21
2017-11-28T03:27:40.425Z,5.20
2017-11-28T03:28:40.402Z,5.21
2017-11-28T03:29:40.406Z,5.21
2017-11-28T03:30:40.400Z,5.23
2017-11-28T03:31:42.031Z,5.21
2017-11-28T03:32:40.347Z,5.15
2017-11-28T03:33:40.295Z,5.26
2017-11-28T03:34:40.272Z,5.15
2017-11-28T03:35:40.242Z,5.15
2017-11-28T03:36:40.270Z,5.15
2017-11-28T03:37:40.191Z,5.18
2017-11-28T03:38:40.182Z,5.14
2017-11-28T03:39:40.197Z,5.15
2017-11-28T03:40:40.160Z,5.18
2017-11-28T03:41:40.151Z,5.23
2017-11-28T03:42:40.149Z,5.15
2017-11-28T03:43:40.100Z,5.15
2017-11-28T03:44:40.043Z,5.18
2017-11-28T03:45:40.020Z,5.21
2017-11-28T03:46:40.039Z,5.14
2017-11-28T03:47:40.005Z,5.26
2017-11-28T03:48:40.004Z,5.18
2017-11-28T03:49:39.924Z,5.17
2017-11-28T03:50:39.931Z,5.11
2017-11-28T03:51:39.877Z,5.14
2017-11-28T03:52:39.869Z,5.14
2017-11-28T03:53:39.860Z,5.15
2017-11-28T03:54:39.840Z,5.26
2017-11-28T03:55:39.795Z,5.12
2017-11-28T03:56:39.792Z,5.15
2017-11-28T03:57:39.746Z,5.11
2017-11-28T03:58:39.721Z,5.17
2017-11-28T03:59:39.732Z,5.12
2017-11-28T04:00:39.710Z,5.17
2017-11-28T04:01:39.693Z,5.14
2017-11-28T04:02:39.631Z,5.14
2017-11-28T04:03:39.614Z,5.17
2017-11-28T04:04:39.605Z,5.21
2017-11-28T04:05:39.569Z,5.25
2017-11-28T04:06:39.537Z,5.11
2017-11-28T04:07:39.530Z,5.15
2017-11-28T04:08:39.525Z,5.12
2017-11-28T04:09:39.494Z,5.15
2017-11-28T04:10:39.453Z,5.18
2017-11-28T04:11:39.485Z,5.20
2017-11-28T04:12:39.403Z,5.23
2017-11-28T04:13:39.418Z,5.14
2017-11-28T04:14:39.373Z,5.12
2017-11-28T04:15:39.337Z,5.18
2017-11-28T04:16:39.347Z,5.17
2017-11-28T04:17:39.306Z,5.21
2017-11-28T04:18:39.303Z,5.14
2017-11-28T04:19:39.245Z,5.14
2017-11-28T04:20:39.221Z,5.14
2017-11-28T04:21:39.215Z,5.08
2017-11-28T04:22:39.172Z,5.11
2017-11-28T04:23:39.197Z,5.08
2017-11-28T04:24:39.146Z,5.07
2017-11-28T04:25:39.127Z,5.05
2017-11-28T04:26:39.083Z,5.10
2017-11-28T04:27:39.101Z,5.11
2017-11-28T04:28:39.072Z,5.04
2017-11-28T04:29:39.057Z,5.00
2017-11-28T04:30:38.994Z,5.02
2017-11-28T04:31:38.990Z,5.10
2017-11-28T04:32:39.004Z,5.11
2017-11-28T04:33:38.972Z,5.05
2017-11-28T04:34:38.909Z,5.11
2017-11-28T04:35:38.876Z,5.11
2017-11-28T04:36:38.866Z,5.07
2017-11-28T04:37:38.847Z,5.05
2017-11-28T04:38:38.846Z,4.94
2017-11-28T04:39:38.814Z,4.94
2017-11-28T04:40:38.774Z,5.00
2017-11-28T04:41:38.774Z,4.94
2017-11-28T04:42:38.755Z,5.00
2017-11-28T04:43:38.704Z,4.96
2017-11-28T04:44:38.677Z,4.96
2017-11-28T04:45:38.687Z,4.99
2017-11-28T04:46:38.656Z,4.97
2017-11-28T04:47:38.625Z,4.97
2017-11-28T04:48:38.610Z,4.94
2017-11-28T04:49:38.612Z,4.86
2017-11-28T04:50:38.557Z,4.93
2017-11-28T04:51:38.544Z,4.82
2017-11-28T04:52:38.537Z,4.84
2017-11-28T04:53:38.475Z,4.93
2017-11-28T04:54:38.485Z,4.86
2017-11-28T04:55:38.477Z,4.84
2017-11-28T04:56:38.428Z,4.78
2017-11-28T04:57:38.424Z,4.70
2017-11-28T04:58:38.386Z,4.75
2017-11-28T04:59:38.367Z,4.77
2017-11-28T05:00:38.324Z,4.73
2017-11-28T05:01:38.372Z,4.77
2017-11-28T05:02:38.306Z,4.74
2017-11-28T05:03:38.309Z,4.77
2017-11-28T05:04:38.229Z,4.71
2017-11-28T05:05:38.200Z,4.71
2017-11-28T05:06:38.254Z,4.75
2017-11-28T05:07:38.188Z,4.70
2017-11-28T05:08:38.154Z,4.73
2017-11-28T05:09:38.118Z,4.78
2017-11-28T05:10:38.144Z,4.68
2017-11-28T05:11:38.096Z,4.78
2017-11-28T05:12:38.048Z,4.68
2017-11-28T05:13:38.058Z,4.71
2017-11-28T05:14:37.993Z,4.70
2017-11-28T05:15:38.021Z,4.58
2017-11-28T05:16:37.990Z,4.63
2017-11-28T05:17:37.996Z,4.73
2017-11-28T05:18:37.935Z,4.71
2017-11-28T05:19:37.999Z,4.73
2017-11-28T05:20:37.921Z,4.67
2017-11-28T05:21:37.845Z,4.68
2017-11-28T05:22:37.839Z,4.71
2017-11-28T05:23:37.813Z,4.70
2017-11-28T05:24:37.773Z,4.77
2017-11-28T05:25:37.748Z,4.70
2017-11-28T05:26:37.730Z,4.75
2017-11-28T05:27:37.751Z,4.75
2017-11-28T05:28:37.680Z,4.80
2017-11-28T05:29:37.654Z,4.71
2017-11-28T05:30:37.636Z,4.80
2017-11-28T05:31:37.615Z,4.75
2017-11-28T05:32:37.607Z,4.78
2017-11-28T05:33:37.572Z,4.77
2017-11-28T05:34:37.562Z,4.70
2017-11-28T05:35:37.520Z,4.77
2017-11-28T05:36:37.502Z,4.67
2017-11-28T05:37:37.501Z,4.80
2017-11-28T05:38:37.452Z,4.80
2017-11-28T05:39:37.450Z,4.73
2017-11-28T05:40:37.412Z,4.87
2017-11-28T05:41:37.392Z,4.71
2017-11-28T05:42:37.365Z,4.71
2017-11-28T05:43:37.365Z,4.75
2017-11-28T05:44:37.356Z,4.78
2017-11-28T05:45:37.332Z,4.78
2017-11-28T05:46:37.270Z,4.71
2017-11-28T05:47:37.284Z,4.78
2017-11-28T05:48:37.217Z,4.74
2017-11-28T05:49:37.207Z,4.80
2017-11-28T05:50:37.199Z,4.74
2017-11-28T05:51:37.181Z,4.74
2017-11-28T05:52:37.173Z,4.74
2017-11-28T05:53:37.105Z,4.78
2017-11-28T05:54:37.105Z,4.78
2017-11-28T05:55:37.072Z,4.77
2017-11-28T05:56:37.039Z,4.77
2017-11-28T05:57:37.021Z,4.75
2017-11-28T05:58:37.034Z,4.73
2017-11-28T05:59:36.962Z,4.60
2017-11-28T06:00:37.044Z,4.66
2017-11-28T06:01:36.964Z,4.63
2017-11-28T06:02:36.952Z,4.67
2017-11-28T06:03:36.961Z,4.53
2017-11-28T06:04:36.857Z,4.62
2017-11-28T06:05:36.845Z,4.59
2017-11-28T06:06:36.807Z,4.56
2017-11-28T06:07:36.800Z,4.59
2017-11-28T06:08:36.785Z,4.62
2017-11-28T06:09:36.740Z,4.60
2017-11-28T06:10:36.725Z,4.63
2017-11-28T06:11:36.714Z,4.53
2017-11-28T06:12:36.685Z,4.49
2017-11-28T06:13:36.701Z,4.58
2017-11-28T06:14:36.622Z,4.49
2017-11-28T06:15:36.643Z,4.60
2017-11-28T06:16:36.636Z,4.56
2017-11-28T06:17:36.585Z,4.62
2017-11-28T06:18:36.597Z,4.52
2017-11-28T06:19:36.520Z,4.66
2017-11-28T06:20:36.508Z,4.59
2017-11-28T06:21:36.477Z,4.59
2017-11-28T06:22:36.504Z,4.66
2017-11-28T06:23:36.458Z,4.66
2017-11-28T06:24:36.420Z,4.58
2017-11-28T06:25:36.393Z,4.60
2017-11-28T06:26:36.391Z,4.62
2017-11-28T06:27:36.332Z,4.58
2017-11-28T06:28:36.313Z,4.53
2017-11-28T06:29:36.296Z,4.44
2017-11-28T06:30:36.264Z,4.49
2017-11-28T06:31:36.237Z,4.48
2017-11-28T06:32:36.244Z,4.55
2017-11-28T06:33:36.221Z,4.52
2017-11-28T06:34:36.171Z,4.58
2017-11-28T06:35:36.158Z,4.59
2017-11-28T06:36:36.162Z,4.53
2017-11-28T06:37:36.157Z,4.49
2017-11-28T06:38:36.111Z,4.53
2017-11-28T06:39:36.090Z,4.53
2017-11-28T06:40:36.075Z,4.62
2017-11-28T06:41:36.035Z,4.50
2017-11-28T06:42:36.008Z,4.55
2017-11-28T06:43:36.009Z,4.48
2017-11-28T06:44:35.993Z,4.60
2017-11-28T06:45:35.944Z,4.48
2017-11-28T06:46:35.921Z,4.45
2017-11-28T06:47:35.911Z,4.49
2017-11-28T06:48:35.907Z,4.44
2017-11-28T06:49:35.838Z,4.52
2017-11-28T06:50:35.816Z,4.63
2017-11-28T06:51:35.781Z,4.56
2017-11-28T06:52:35.788Z,4.63
2017-11-28T06:53:35.790Z,4.66
2017-11-28T06:54:35.731Z,4.55
2017-11-28T06:55:35.758Z,4.68
2017-11-28T06:56:35.692Z,4.62
2017-11-28T06:57:35.651Z,4.55
2017-11-28T06:58:35.634Z,4.63
2017-11-28T06:59:35.649Z,4.55
2017-11-28T07:00:35.584Z,4.63
2017-11-28T07:01:35.568Z,4.68
2017-11-28T07:02:35.621Z,4.60
2017-11-28T07:03:35.550Z,4.62
2017-11-28T07:04:35.515Z,4.66
2017-11-28T07:05:35.461Z,4.58
2017-11-28T07:06:35.464Z,4.50
2017-11-28T07:07:35.444Z,4.44
2017-11-28T07:08:35.410Z,4.31
2017-11-28T07:09:35.384Z,4.38
2017-11-28T07:10:35.363Z,4.23
2017-11-28T07:11:35.350Z,4.26
2017-11-28T07:12:35.324Z,4.20
2017-11-28T07:13:35.307Z,4.19
2017-11-28T07:14:35.276Z,4.14
2017-11-28T07:15:35.283Z,4.14
2017-11-28T07:16:35.284Z,4.24
2017-11-28T07:17:35.204Z,4.13
2017-11-28T07:18:35.169Z,4.13
2017-11-28T07:19:35.251Z,4.17
2017-11-28T07:20:35.172Z,4.08
2017-11-28T07:21:35.141Z,4.02
2017-11-28T07:22:35.113Z,4.12
2017-11-28T07:23:35.110Z,4.17
2017-11-28T07:24:35.066Z,4.22
2017-11-28T07:25:35.074Z,4.20
2017-11-28T07:26:34.978Z,4.02
2017-11-28T07:27:34.986Z,4.12
2017-11-28T07:28:34.973Z,4.17
2017-11-28T07:29:34.908Z,4.10
2017-11-28T07:30:34.896Z,4.02
2017-11-28T07:31:34.914Z,4.19
2017-11-28T07:32:34.855Z,4.19
2017-11-28T07:33:34.832Z,4.05
2017-11-28T07:34:34.817Z,4.17
2017-11-28T07:35:34.835Z,4.01
2017-11-28T07:36:34.798Z,4.10
2017-11-28T07:37:34.776Z,4.19
2017-11-28T07:38:34.753Z,4.06
2017-11-28T07:39:34.680Z,4.17
2017-11-28T07:40:34.699Z,4.05
2017-11-28T07:41:34.739Z,4.14
2017-11-28T07:42:34.827Z,4.17
2017-11-28T07:43:34.671Z,4.23
2017-11-28T07:44:36.114Z,4.28
2017-11-28T07:45:34.581Z,4.28
2017-11-28T07:46:34.545Z,4.22
2017-11-28T07:47:34.536Z,4.23
2017-11-28T07:48:34.502Z,4.26
2017-11-28T07:49:34.500Z,4.28
2017-11-28T07:50:34.431Z,4.22
2017-11-28T07:51:34.422Z,4.32
2017-11-28T07:52:34.447Z,4.34
2017-11-28T07:53:34.405Z,4.32
2017-11-28T07:54:34.345Z,4.37
2017-11-28T07:55:34.346Z,4.32
2017-11-28T07:56:34.337Z,4.32
2017-11-28T07:57:34.267Z,4.34
2017-11-28T07:58:34.240Z,4.31
2017-11-28T07:59:34.269Z,4.35
2017-11-28T08:00:34.250Z,4.31
2017-11-28T08:01:34.199Z,4.44
2017-11-28T08:02:34.159Z,4.34
2017-11-28T08:03:34.177Z,4.35
2017-11-28T08:04:34.155Z,4.35
2017-11-28T08:05:34.105Z,4.35
2017-11-28T08:06:34.095Z,4.24
2017-11-28T08:07:34.078Z,4.32
2017-11-28T08:08:34.017Z,4.35
2017-11-28T08:09:33.991Z,4.35
2017-11-28T08:10:33.967Z,4.48
2017-11-28T08:11:33.947Z,4.53
2017-11-28T08:12:33.922Z,4.48
2017-11-28T08:13:33.923Z,4.53
2017-11-28T08:14:33.883Z,4.59
2017-11-28T08:15:33.883Z,4.63
2017-11-28T08:16:33.833Z,4.59
2017-11-28T08:17:33.812Z,4.63
2017-11-28T08:18:33.792Z,4.58
2017-11-28T08:19:33.763Z,4.75
2017-11-28T08:20:33.740Z,4.66
2017-11-28T08:21:33.749Z,4.73
2017-11-28T08:22:33.730Z,4.78
2017-11-28T08:23:33.693Z,4.78
2017-11-28T08:24:33.687Z,4.78
2017-11-28T08:25:33.625Z,4.73
2017-11-28T08:26:33.632Z,4.80
2017-11-28T08:27:33.578Z,4.77
2017-11-28T08:28:33.574Z,4.86
2017-11-28T08:29:33.541Z,4.93
2017-11-28T08:30:33.551Z,4.82
2017-11-28T08:31:33.491Z,4.90
2017-11-28T08:32:33.461Z,4.97
2017-11-28T08:33:33.445Z,5.04
2017-11-28T08:34:33.437Z,4.99
2017-11-28T08:35:33.412Z,5.02
2017-11-28T08:36:33.382Z,4.94
2017-11-28T08:37:33.389Z,4.97
2017-11-28T08:38:33.361Z,4.99
2017-11-28T08:39:33.333Z,5.05
2017-11-28T08:40:33.314Z,5.04
2017-11-28T08:41:33.254Z,5.07
2017-11-28T08:42:33.235Z,5.14
2017-11-28T08:43:33.245Z,5.12
2017-11-28T08:44:33.202Z,5.08
2017-11-28T08:45:33.164Z,5.12
2017-11-28T08:46:33.164Z,5.14
2017-11-28T08:47:33.123Z,5.05
2017-11-28T08:48:33.112Z,5.11
2017-11-28T08:49:33.097Z,5.20
2017-11-28T08:50:33.087Z,5.17
2017-11-28T08:51:33.069Z,5.12
2017-11-28T08:52:33.031Z,5.17
2017-11-28T08:53:32.994Z,5.18
2017-11-28T08:54:32.975Z,5.17
2017-11-28T08:55:32.948Z,5.14
2017-11-28T08:56:32.926Z,5.18
2017-11-28T08:57:32.900Z,5.18
2017-11-28T08:58:32.895Z,5.17
2017-11-28T08:59:32.864Z,5.15
2017-11-28T09:00:32.836Z,5.20
2017-11-28T09:01:32.854Z,5.25
2017-11-28T09:02:32.859Z,5.18
2017-11-28T09:03:32.799Z,5.15
2017-11-28T09:04:32.756Z,5.08
2017-11-28T09:05:32.716Z,5.04
2017-11-28T09:06:32.745Z,5.10
2017-11-28T09:07:32.680Z,5.14
2017-11-28T09:08:32.666Z,5.10
2017-11-28T09:09:32.633Z,5.10
2017-11-28T09:10:32.604Z,5.07
2017-11-28T09:11:32.601Z,5.04
2017-11-28T09:12:32.556Z,5.00
2017-11-28T09:13:32.540Z,4.93
2017-11-28T09:14:32.560Z,4.94
2017-11-28T09:15:32.506Z,5.05
2017-11-28T09:16:32.465Z,5.00
2017-11-28T09:17:32.474Z,5.00
2017-11-28T09:18:32.423Z,5.05
2017-11-28T09:19:32.424Z,5.11
2017-11-28T09:20:32.389Z,5.14
2017-11-28T09:21:32.358Z,5.02
2017-11-28T09:22:32.351Z,5.00
2017-11-28T09:23:32.366Z,5.05
2017-11-28T09:24:32.288Z,5.05
2017-11-28T09:25:32.304Z,5.04
2017-11-28T09:26:32.240Z,5.04
2017-11-28T09:27:32.240Z,4.92
2017-11-28T09:28:32.194Z,4.94
2017-11-28T09:29:32.204Z,5.00
2017-11-28T09:30:32.171Z,4.94
2017-11-28T09:31:32.133Z,4.96
2017-11-28T09:32:32.124Z,4.99
2017-11-28T09:33:32.116Z,4.94
2017-11-28T09:34:32.099Z,4.92
2017-11-28T09:35:32.043Z,4.93
2017-11-28T09:36:32.046Z,4.90
2017-11-28T09:37:32.021Z,4.94
2017-11-28T09:38:31.976Z,4.89
2017-11-28T09:39:31.953Z,4.87
2017-11-28T09:40:31.953Z,4.90
2017-11-28T09:41:31.920Z,4.90
2017-11-28T09:42:31.918Z,4.90
2017-11-28T09:43:31.891Z,4.89
2017-11-28T09:44:31.832Z,4.92
2017-11-28T09:45:31.844Z,4.92
2017-11-28T09:46:31.821Z,4.93
2017-11-28T09:47:31.817Z,4.99
2017-11-28T09:48:31.761Z,4.94
2017-11-28T09:49:31.719Z,5.07
2017-11-28T09:50:31.736Z,5.17
2017-11-28T09:51:31.682Z,5.23
2017-11-28T09:52:31.686Z,5.30
2017-11-28T09:53:31.650Z,5.54
2017-11-28T09:54:31.618Z,5.68
2017-11-28T09:55:31.609Z,5.84
2017-11-28T09:56:31.584Z,6.04
2017-11-28T09:57:31.540Z,6.49
2017-11-28T09:58:31.531Z,6.79
2017-11-28T09:59:31.511Z,7.13
2017-11-28T10:00:31.501Z,7.35
2017-11-28T10:01:31.491Z,7.75
2017-11-28T10:02:31.452Z,7.90
2017-11-28T10:03:31.443Z,8.15
2017-11-28T10:04:31.402Z,8.12
2017-11-28T10:05:31.389Z,8.13
2017-11-28T10:06:31.377Z,8.06
2017-11-28T10:07:31.350Z,7.98
2017-11-28T10:08:31.339Z,7.77
2017-11-28T10:09:31.272Z,7.61
2017-11-28T10:10:31.290Z,7.40
2017-11-28T10:11:31.260Z,7.28
2017-11-28T10:12:31.220Z,7.13
2017-11-28T10:13:31.183Z,6.99
2017-11-28T10:14:31.178Z,6.88
2017-11-28T10:15:31.144Z,6.85
2017-11-28T10:16:31.123Z,6.78
2017-11-28T10:17:31.098Z,6.79
2017-11-28T10:18:31.093Z,6.70
2017-11-28T10:19:31.084Z,6.74
2017-11-28T10:20:31.033Z,6.74
2017-11-28T10:21:31.011Z,6.54
2017-11-28T10:22:30.995Z,6.56
2017-11-28T10:23:30.982Z,6.46
2017-11-28T10:24:30.979Z,6.46
2017-11-28T10:25:30.935Z,6.27
2017-11-28T10:26:30.934Z,6.26
2017-11-28T10:27:30.889Z,6.09
2017-11-28T10:28:30.875Z,6.02
2017-11-28T10:29:30.891Z,6.09
2017-11-28T10:30:30.834Z,6.09
2017-11-28T10:31:30.802Z,6.01
2017-11-28T10:32:30.768Z,5.93
2017-11-28T10:33:30.795Z,5.86
2017-11-28T10:34:30.738Z,5.87
2017-11-28T10:35:30.713Z,5.84
2017-11-28T10:36:30.695Z,5.76
2017-11-28T10:37:30.680Z,5.82
2017-11-28T10:38:30.649Z,5.75
2017-11-28T10:39:30.617Z,5.68
2017-11-28T10:40:30.632Z,5.83
2017-11-28T10:41:30.577Z,5.79
2017-11-28T10:42:30.557Z,5.86
2017-11-28T10:43:30.575Z,5.80
2017-11-28T10:44:30.522Z,5.83
2017-11-28T10:45:30.547Z,5.82
2017-11-28T10:46:30.461Z,5.80
2017-11-28T10:47:30.447Z,5.87
2017-11-28T10:48:30.430Z,5.87
2017-11-28T10:49:30.406Z,5.90
2017-11-28T10:50:30.385Z,5.98
2017-11-28T10:51:30.404Z,6.02
2017-11-28T10:52:30.331Z,5.99
2017-11-28T10:53:30.332Z,6.05
2017-11-28T10:54:30.309Z,6.02
2017-11-28T10:55:30.290Z,6.07
2017-11-28T10:56:30.240Z,6.12
2017-11-28T10:57:30.244Z,6.08
2017-11-28T10:58:30.233Z,6.17
2017-11-28T10:59:30.181Z,6.19
2017-11-28T11:00:30.176Z,6.22
2017-11-28T11:01:30.148Z,6.35
2017-11-28T11:02:30.107Z,6.26
2017-11-28T11:03:30.114Z,6.20
2017-11-28T11:04:30.078Z,6.26
2017-11-28T11:05:30.078Z,6.19
2017-11-28T11:06:30.017Z,6.19
2017-11-28T11:07:30.017Z,6.28
2017-11-28T11:08:29.989Z,6.20
2017-11-28T11:09:29.952Z,6.12
2017-11-28T11:10:29.941Z,6.16
2017-11-28T11:11:29.905Z,6.24
2017-11-28T11:12:29.894Z,6.20
2017-11-28T11:13:29.876Z,6.19
2017-11-28T11:14:29.865Z,6.20
2017-11-28T11:15:29.857Z,6.28
2017-11-28T11:16:29.804Z,6.22
2017-11-28T11:17:29.906Z,6.31
2017-11-28T11:18:29.773Z,6.30
2017-11-28T11:19:29.737Z,6.20
2017-11-28T11:20:29.741Z,6.27
2017-11-28T11:21:29.693Z,6.35
2017-11-28T11:22:29.670Z,6.33
2017-11-28T11:23:29.669Z,6.33
2017-11-28T11:24:29.620Z,6.35
2017-11-28T11:25:29.606Z,6.22
2017-11-28T11:26:29.599Z,6.19
2017-11-28T11:27:29.597Z,6.38
2017-11-28T11:28:29.555Z,6.44
2017-11-28T11:29:29.509Z,6.41
2017-11-28T11:30:29.510Z,6.48
2017-11-28T11:31:29.461Z,6.70
2017-11-28T11:32:29.431Z,7.15
2017-11-28T11:33:29.418Z,7.88
2017-11-28T11:34:29.394Z,8.60
2017-11-28T11:35:29.370Z,9.36
2017-11-28T11:36:29.345Z,10.05
2017-11-28T11:37:29.342Z,10.69
2017-11-28T11:38:29.360Z,11.33
2017-11-28T11:39:29.289Z,12.27
2017-11-28T11:40:29.274Z,13.00
2017-11-28T11:41:29.244Z,13.63
2017-11-28T11:42:29.250Z,14.23
2017-11-28T11:43:29.202Z,14.23
2017-11-28T11:44:29.209Z,13.54
2017-11-28T11:45:29.165Z,13.08
2017-11-28T11:46:29.147Z,13.13
2017-11-28T11:47:29.132Z,12.95
2017-11-28T11:48:29.138Z,12.65
2017-11-28T11:49:29.085Z,12.62
2017-11-28T11:50:29.136Z,12.73
2017-11-28T11:51:29.081Z,12.36
2017-11-28T11:52:29.041Z,11.81
2017-11-28T11:53:29.016Z,11.29
2017-11-28T11:54:29.009Z,10.89
2017-11-28T11:55:28.980Z,10.54
2017-11-28T11:56:28.966Z,10.41
2017-11-28T11:57:28.931Z,10.13
2017-11-28T11:58:28.928Z,10.01
2017-11-28T11:59:28.916Z,9.72
2017-11-28T12:00:28.904Z,9.56
2017-11-28T12:01:28.865Z,9.40
2017-11-28T12:02:28.855Z,9.23
2017-11-28T12:03:28.863Z,9.06
2017-11-28T12:04:28.806Z,8.95
2017-11-28T12:05:28.782Z,8.71
2017-11-28T12:06:28.765Z,8.70
2017-11-28T12:07:28.754Z,8.44
2017-11-28T12:08:28.716Z,8.33
2017-11-28T12:09:28.697Z,8.15
2017-11-28T12:10:28.689Z,8.13
2017-11-28T12:11:28.666Z,8.13
2017-11-28T12:12:28.634Z,8.05
2017-11-28T12:13:28.619Z,7.83
2017-11-28T12:14:28.605Z,7.80
2017-11-28T12:15:28.605Z,7.67
2017-11-28T12:16:28.564Z,7.56
2017-11-28T12:17:28.546Z,7.50
2017-11-28T12:18:28.529Z,7.39
2017-11-28T12:19:28.510Z,7.32
2017-11-28T12:20:28.484Z,7.39
2017-11-28T12:21:28.466Z,7.48
2017-11-28T12:22:28.442Z,7.50
2017-11-28T12:23:28.428Z,7.50
2017-11-28T12:24:28.429Z,7.54
2017-11-28T12:25:28.373Z,7.57
2017-11-28T12:26:28.380Z,7.56
2017-11-28T12:27:28.323Z,7.50
2017-11-28T12:28:28.317Z,7.45
2017-11-28T12:29:28.323Z,7.35
2017-11-28T12:30:28.272Z,7.31
2017-11-28T12:31:28.247Z,7.25
2017-11-28T12:32:28.258Z,7.14
2017-11-28T12:33:28.230Z,7.14
2017-11-28T12:34:28.220Z,7.25
2017-11-28T12:35:28.176Z,7.21
2017-11-28T12:36:28.168Z,7.31
2017-11-28T12:37:28.139Z,7.29
2017-11-28T12:38:28.099Z,7.28
2017-11-28T12:39:28.083Z,7.20
2017-11-28T12:40:28.096Z,7.25
2017-11-28T12:41:28.049Z,7.18
2017-11-28T12:42:28.048Z,7.00
2017-11-28T12:43:28.073Z,7.02
2017-11-28T12:44:27.988Z,7.31
2017-11-28T12:45:28.027Z,7.80
2017-11-28T12:46:27.959Z,8.27
2017-11-28T12:47:27.904Z,8.89
2017-11-28T12:48:27.893Z,9.18
2017-11-28T12:49:27.877Z,9.04
2017-11-28T12:50:27.835Z,9.10
2017-11-28T12:51:27.822Z,9.03
2017-11-28T12:52:27.834Z,8.88
2017-11-28T12:53:27.819Z,8.76
2017-11-28T12:54:27.771Z,8.70
2017-11-28T12:55:27.768Z,8.74
2017-11-28T12:56:27.745Z,8.87
2017-11-28T12:57:27.730Z,8.91
2017-11-28T12:58:27.681Z,9.08
2017-11-28T12:59:27.658Z,9.08
2017-11-28T13:00:27.648Z,9.08
2017-11-28T13:01:27.622Z,9.08
2017-11-28T13:02:27.588Z,8.94
2017-11-28T13:03:27.582Z,9.04
2017-11-28T13:04:27.578Z,9.19
2017-11-28T13:05:27.552Z,9.59
2017-11-28T13:06:27.516Z,9.84
2017-11-28T13:07:27.504Z,9.69
2017-11-28T13:08:27.499Z,9.39
2017-11-28T13:09:27.442Z,9.10
2017-11-28T13:10:27.429Z,8.88
2017-11-28T13:11:27.406Z,8.66
2017-11-28T13:12:27.396Z,8.63
2017-11-28T13:13:27.369Z,8.63
2017-11-28T13:14:27.353Z,8.70
2017-11-28T13:15:27.323Z,8.64
2017-11-28T13:16:27.313Z,8.48
2017-11-28T13:17:27.283Z,8.24
2017-11-28T13:18:27.289Z,8.10
2017-11-28T13:19:27.242Z,7.91